NWS Home NWS Lubbock West Texas Mesonet Three hour changes as of 0528 AM, Fri Jan 19, 2018

Latest   N   C   S   Daily Sum   3hrΔ   24hrΔ   Soil Data 
Site Map   24hr Precip   72hr Precip   Google Plot


Station Time of Last Temp Now Temp 3h ago Delta-T Dewpoint Now Dewpoint 3hr ago Delta-Td 3hr Press Change (mB)
Reese Center  05:20 AM 20.7 25.2 -4.5 12.3 13.6 -1.3 -1.4
Abernathy  05:20 AM 22.5 29.9 -7.5 14.8 16.5 -1.7 -1.3
Plainview  05:20 AM 22.5 27.3 -4.9 13.1 14.7 -1.7 -1.5
Tahoka  05:20 AM 23.9 27 -3.1 11.7 13 -1.4 -1.5
Slaton  05:20 AM 28.8 31.2 -2.4 14.3 15 -0.7 -1.3
Levelland  05:20 AM 24.8 26.3 -1.5 12.7 11.9 0.7 -1.5
Roaring Springs  05:20 AM 36.2 36.2 -0 17.8 19.1 -1.3 -1.4
Floydada  05:20 AM 27 27.2 -0.2 14.4 13.5 0.9 -1.6
Ralls  05:20 AM 28.1 29.4 -1.3 13.1 13.2 -0.2 -1.1
Brownfield  05:20 AM 24.7 27 -2.3 12.1 12.5 -0.4 -1.4
Muleshoe  05:20 AM 14.8 16.8 -2 7.9 8 -0.1 -1.2
Morton  05:20 AM 26.4 33.3 -6.9 10.5 13 -2.5 -1.5
O'Donnell  05:20 AM 21.8 24.9 -3 12.9 13.4 -0.5 -1.4
Seagraves  05:20 AM 22.1 22.2 -0 13.5 13.6 -0.1 -1.2
Amherst  05:20 AM 28.3 29.2 -0.9 12.8 13.2 -0.5 -1.3
Plains  05:20 AM 21 24.1 -3.1 11.2 11.9 -0.8 -1.5
Lamesa  05:20 AM 18.1 24.4 -6.2 12.1 15.3 -3.2 -1.5
Hart  05:20 AM 19.5 22.2 -2.7 9.4 9.9 -0.5 -1.4
Friona  05:20 AM 23.4 24.3 -0.9 11.8 10.5 1.3 -1.2
Dimmitt  05:20 AM 31.5 28.3 3.2 12.8 11.2 1.7 -1.4
Tulia  05:20 AM 26.6 29.2 -2.6 14.1 13.9 0.2 -1.3
Silverton  05:20 AM 27.1 26.9 0.3 12.7 12.2 0.5 -1.4
Post  05:20 AM 30.1 33.1 -3.1 14 14.1 -0.1 -1.5
Seminole  05:20 AM 22.6 26.3 -3.8 12.6 13.2 -0.6 -1.2
Gail  05:20 AM 24.8 25.6 -0.8 14.4 14.1 0.3 -1.6
White River Lake  05:20 AM 32.2 33.5 -1.2 14.3 15 -0.7 -1.4
Graham  05:20 AM 27 29.3 -2.3 15.3 15.2 0.1 -1.5
Sundown  05:20 AM 26.5 22.7 3.8 14.3 10.9 3.4 -1.4
Anton  05:20 AM 24.6 29.2 -4.5 14.4 15.7 -1.3 -1.5
Fluvanna  05:20 AM 26.7 29.6 -2.9 16.3 15.6 0.7 -1.8
Spur  05:20 AM 25.5 23.9 1.6 15.2 14.6 0.6 -1.3
Northwest Lubbock  05:20 AM 27.6 33.8 -6.2 12.7 14.5 -1.8 -1.2
Guthrie  05:20 AM 29 31.2 -2.2 15.2 15.4 -0.3 -1.6
Clarendon  05:20 AM 31.9 35.6 -3.6 13.3 14 -0.7 -1.1
Paducah  05:20 AM 25.2 33.4 -8.2 15.7 18.2 -2.4 -1.5
Snyder  05:20 AM 26 27.3 -1.3 18.5 16.8 1.8 -1.5
Memphis  05:20 AM 16.8 18.8 -2 7.5 7.1 0.4 -1.6
Jayton  05:20 AM 24.3 29.6 -5.3 15.5 16.6 -1.1 -1.4
Pampa  05:20 AM 31.6 36 -4.3 13 12 1 -0.9
Aspermont  05:20 AM 32.2 32.2 0 17.2 14.8 2.4 -1.4
Hereford  05:20 AM 24.2 23.3 0.9 10.3 7.8 2.4 -1.1
Goodlett  05:20 AM 25.3 25.4 -0.1 15.7 15.8 -0.2 -1.8
McLean  05:20 AM 34.1 32.5 1.5 11.7 14.2 -2.5 -1.3
Denver City  05:20 AM 26.9 26.2 0.7 14.3 13.2 1.1 -1.7
Lake Alan Henry  05:20 AM 31.5 34.6 -3.1 15.3 15.4 -0.1 -1.4
Wolfforth  05:20 AM 21.6 25.1 -3.6 9.8 11.3 -1.5 -1.3
Andrews  05:20 AM 27 28.1 -1.1 16.6 15.5 1.2 -1.6
Turkey  05:20 AM 35.8 35 0.8 17 17.2 -0.1 -1.8
Childress  05:20 AM 27.5 31.8 -4.4 17 17.8 -0.8 -1.6
Tatum  05:20 AM 25.1 24.2 0.9 12.9 13.1 -0.3 -1.5
Northfield  01:30 AM 31.7 35.9 -4.2 16.1 16.5 -0.3 -1
Dora  05:20 AM 34.4 35 -0.6 12 12.4 -0.4 -1.4
Northwest San Angelo  05:20 AM 29.8 32 -2.2 19.2 18.3 1 -1.3
Saint Lawrence  05:20 AM 25.4 29.1 -3.7 16.3 16.7 -0.4 -1.2
Haskell  05:20 AM 29.4 31 -1.6 15.2 14.6 0.6 -1.3
Wall  05:20 AM 31.5 33 -1.5 26.1 23.9 2.2 -1
Seymour  05:20 AM 28.2 31.6 -3.4 17.4 17.8 -0.4 -1.5
Knox City  05:20 AM 25 27.5 -2.6 15 15.8 -0.8 -1.3
Guadalupe Mtns Park  05:20 AM 39.8 36.1 3.7 4.4 8.3 -3.9 -0.9
Caprock Canyons   05:20 AM 41.3 40.6 0.8 14.5 15.9 -1.4 -1.8
Odell  05:20 AM 29.1 31.5 -2.4 17.7 18.5 -0.8 -1.7
Coyanosa  05:20 AM 21 23.6 -2.6 13.2 12.7 0.6 -1
Big Lake  05:20 AM 26.5 28.3 -1.7 21.7 19.2 2.5 -1.3
Junction  05:20 AM 42 42.7 -0.8 38.4 37.9 0.5 -1.4
Hobbs  05:20 AM 22.7 25 -2.3 12.9 12.6 0.3 -1.5
Canadian  05:20 AM 28.4 32.2 -3.8 14.6 16.1 -1.6 -1.6
Palo Duro Canyon State Park Rim  05:20 AM 32.3 29.4 2.9 12.3 10.2 2.1 -1.2
Bootleg  05:20 AM 28.6 29.2 -0.6 11.3 11.3 0 -1.1
Sterling City  05:20 AM 28.6 31.6 -3 18.8 17.2 1.6 -1.2
Mertzon  05:20 AM 28.2 30.3 -2.2 20.6 18.6 2 -1
Persimmon Gap  05:20 AM 29 32.5 -3.4 14.2 16.9 -2.6 -1
Weinert  05:20 AM 30.4 32.5 -2.1 14.6 14.5 0.1 -1.2
Claude 12 Southwest  05:20 AM 36.6 38.7 -2 12.3 11.7 0.6 -1.2
Amarillo 7 South Southeast  05:20 AM 28.1 29.6 -1.5 11.1 10 1.1 -0.9
Umbarger  05:20 AM 24.7 28.8 -4.1 10.7 10.5 0.3 -1.1
Lomax  05:20 AM 28.4 29.5 -1.1 17.5 16.4 1.2 -1.1
Amarillo 9 North Northeast  05:20 AM 27.6 38.6 -11 11.8 12.2 -0.5 -0.8
Aiken 3 West Southwest  05:20 AM 21 16.8 4.2 12.3 9.6 2.6 -1.6
Sweetwater  05:20 AM 30.2 30.7 -0.5 20.6 17.4 3.2 -1.1
Dozier  05:20 AM 21 25.4 -4.4 13.4 15.2 -1.8 -1.5
Amarillo 15 North Northwest  05:20 AM 27.4 32 -4.6 11.9 10.4 1.5 -0.9
Menard  05:20 AM 34.5 42.2 -7.8 32.2 37.6 -5.4 -1.2
Tarzan  05:20 AM 20.7 23.8 -3 12.6 13.3 -0.7 -1.3
Goodnight  05:20 AM 32.7 37.9 -5.1 12.9 12.9 0.1 -1.4
Boys Ranch   05:20 AM 15.2 18.4 -3.2 6.9 4.5 2.4 -1
Fort McKavett  05:20 AM 32.3 35.3 -3 30 32.1 -2.1 -1.6
Fort Chadbourne  05:20 AM 30.7 32.1 -1.4 21.2 18.3 2.9 -1.4
Palo Duro Canyon State Park Floor  05:20 AM 22.1 27.4 -5.3 8.3 9.3 -1 -1.1
Fort Lancaster  05:20 AM 28.9 30.5 -1.6 23.3 19.8 3.5 -1.7
Dell City 1N  05:20 AM 16.9 21.8 -4.9 8.7 10.1 -1.4 -0.6
Clyde  05:20 AM 33.7 34.4 -0.7 23.8 20.7 3.1 -1
Snyder SSW  05:20 AM 23.7 26.2 -2.5 16.6 15.9 0.8 -1.5
Panhandle  05:20 AM 26.7 27.5 -0.8 11.1 10.5 0.6 -1.2
Vigo Park  05:20 AM 24.1 27.6 -3.5 11.8 12.2 -0.3 -1.5
Welch  05:20 AM 19.7 21.3 -1.6 11.6 12 -0.4 -1.5
Throckmorton  05:20 AM 29.2 33.7 -4.5 21.3 21.4 -0.1 -1.4
Sierra Blanca  05:20 AM 37.2 42.2 -5 16.2 16.1 0.1 -0.8
Fort Lewis CO  05:20 AM 20.3 24.5 -4.1 16.1 18.6 -2.5 -0.8
New Home  05:20 AM 24.6 25.8 -1.2 13.2 13.4 -0.2 -1.5
McCamey  05:20 AM 27.1 30.1 -3.1 18.6 19.1 -0.6 -1.2
Stamford  04:30 PM 48.6 43.1 5.6 14.2 21.4 -7.2 2.1
Crowell  05:20 AM 24 29.4 -5.4 14.1 16.2 -2 -1.5
Stinnett  12:20 PM 37.9 20.7 17.2 6.7 3.8 2.9 -0.9
Colorado City  05:20 AM 25 27.7 -2.7 18.1 16.7 1.3 -1.3
Happy  04:15 AM 25.6 23.8 1.7 11.3 8.2 3.1 -1.7
Endee  05:20 AM 26 28 -2 11.5 12 -0.5 -1
JA Ranch  05:20 AM 27.8 34.9 -7 11.4 13.3 -1.9 -1.3
Adrian  05:20 AM 34.4 40.2 -5.8 11.7 11.2 0.5 -1.1
Lesley  05:20 AM 29.8 31.1 -1.3 14.8 15.6 -0.8 -1.5
Earth  05:20 AM 17.9 30.8 -12.9 9.7 17.4 -7.7 -1.2
Olton  05:20 AM 22.5 21.8 0.7 12.7 11.6 1.2 -1.5

West Texas Mesonet Home   Site Map/Menu  NWS Lubbock Soil Data  Daily Summary Page  24hr Precip  72hr Precip  Google Plot